Time;durP1;ratioP1;P1;durP2;ratioP2;P2;SDS_P1;SDS_P2;PMS_P1;PMS_P2;Temp;Humidity;BMP_temperature;BMP_pressure;BME280_temperature;BME280_humidity;BME280_pressure;Samples;Min_cycle;Max_cycle;Signal;HPM_P1;HPM_P2
2023/10/29 00:00:17;;;;;;;4.70;0.40;;;13.10;99.90;;;;;;5043047;28;20022;-87
2023/10/29 00:02:44;;;;;;;2.92;0.50;;;13.20;99.90;;;;;;5043766;28;20029;-86
2023/10/29 00:05:10;;;;;;;3.67;0.40;;;13.20;99.90;;;;;;5045140;28;20018;-88
2023/10/29 00:07:36;;;;;;;1.80;0.32;;;13.20;99.90;;;;;;5047336;28;20043;-87
2023/10/29 00:10:02;;;;;;;2.70;0.45;;;13.20;99.90;;;;;;5044068;28;20029;-87
2023/10/29 00:12:28;;;;;;;3.35;0.38;;;13.30;99.90;;;;;;5043916;28;20053;-88
2023/10/29 00:14:54;;;;;;;1.90;0.40;;;13.30;99.90;;;;;;5041980;28;20021;-88
2023/10/29 00:17:19;;;;;;;2.53;0.50;;;13.30;99.90;;;;;;5042910;28;20052;-87
2023/10/29 00:19:45;;;;;;;1.80;0.40;;;13.40;99.90;;;;;;5042630;28;20041;-87
2023/10/29 00:22:11;;;;;;;3.15;0.40;;;13.40;99.90;;;;;;5042628;28;20093;-87
2023/10/29 00:24:37;;;;;;;2.95;0.30;;;13.40;99.90;;;;;;5042390;28;20021;-87
2023/10/29 00:27:03;;;;;;;2.78;0.50;;;13.50;99.90;;;;;;5041914;28;20044;-87
2023/10/29 00:29:29;;;;;;;3.17;0.50;;;13.50;99.90;;;;;;5042489;28;20029;-88
2023/10/29 00:31:55;;;;;;;2.97;0.40;;;13.50;99.90;;;;;;5041895;28;20047;-87
2023/10/29 00:34:21;;;;;;;1.85;0.30;;;13.50;99.90;;;;;;5042698;28;20025;-88
2023/10/29 00:36:47;;;;;;;2.47;0.43;;;13.60;99.90;;;;;;5042130;28;20037;-87
2023/10/29 00:39:12;;;;;;;2.60;0.50;;;13.60;99.90;;;;;;5041905;28;20024;-87
2023/10/29 00:41:38;;;;;;;4.13;0.40;;;13.60;99.90;;;;;;5042256;28;20039;-87
2023/10/29 00:44:04;;;;;;;1.90;0.43;;;13.60;99.90;;;;;;5039773;28;20132;-88
2023/10/29 00:46:31;;;;;;;1.25;0.40;;;13.60;99.90;;;;;;5042221;28;20037;-87
2023/10/29 00:48:57;;;;;;;1.90;0.57;;;13.60;99.90;;;;;;5042099;28;20010;-87
2023/10/29 00:51:23;;;;;;;6.05;0.60;;;13.60;99.90;;;;;;5042285;28;20022;-87
2023/10/29 00:53:49;;;;;;;3.20;0.60;;;13.60;99.90;;;;;;5041687;28;20120;-88
2023/10/29 00:56:18;;;;;;;2.40;0.32;;;13.60;99.90;;;;;;5041952;28;20043;-88
2023/10/29 00:58:46;;;;;;;1.80;0.43;;;13.60;99.90;;;;;;5042188;28;20030;-88
2023/10/29 01:01:12;;;;;;;2.72;0.30;;;13.60;99.90;;;;;;5041615;28;20163;-88
2023/10/29 01:03:37;;;;;;;1.95;0.50;;;13.60;99.90;;;;;;5042208;28;20021;-88
2023/10/29 01:06:04;;;;;;;3.33;0.52;;;13.60;99.90;;;;;;5042032;28;20022;-89
2023/10/29 01:08:30;;;;;;;3.03;0.50;;;13.60;99.90;;;;;;5042761;28;20099;-87
2023/10/29 01:10:55;;;;;;;3.13;0.30;;;13.60;99.90;;;;;;5041989;28;20033;-88
2023/10/29 01:13:21;;;;;;;1.17;0.43;;;13.70;99.90;;;;;;5041864;28;20025;-88
2023/10/29 01:15:47;;;;;;;2.35;0.60;;;13.70;99.90;;;;;;5042487;28;20080;-87
2023/10/29 01:18:13;;;;;;;2.58;0.57;;;13.70;99.90;;;;;;5042490;28;20018;-89
2023/10/29 01:20:39;;;;;;;2.50;0.60;;;13.70;99.90;;;;;;5042278;28;20029;-87
2023/10/29 01:23:04;;;;;;;4.60;0.50;;;13.70;99.90;;;;;;5034390;28;20421;-86
2023/10/29 01:25:30;;;;;;;1.90;0.50;;;13.80;99.90;;;;;;5023741;28;20022;-86
2023/10/29 01:27:57;;;;;;;2.63;0.50;;;13.80;99.90;;;;;;5028013;28;20037;-87
2023/10/29 01:30:23;;;;;;;2.22;0.40;;;13.80;99.90;;;;;;5025644;28;20069;-87
2023/10/29 01:32:49;;;;;;;3.63;0.40;;;13.80;99.90;;;;;;5021955;28;20029;-87
2023/10/29 01:35:15;;;;;;;5.72;0.45;;;13.80;99.90;;;;;;5021818;28;20018;-87
2023/10/29 01:37:41;;;;;;;4.78;0.50;;;13.80;99.90;;;;;;5021408;28;20052;-86
2023/10/29 01:40:07;;;;;;;1.77;0.40;;;13.80;99.90;;;;;;5032170;28;20560;-87
2023/10/29 01:42:33;;;;;;;3.08;0.47;;;13.80;99.90;;;;;;5021195;28;20050;-86
2023/10/29 01:44:59;;;;;;;2.08;0.50;;;13.90;99.90;;;;;;5030105;28;20060;-88
2023/10/29 01:47:24;;;;;;;1.80;0.40;;;13.90;99.90;;;;;;5025733;28;20037;-85
2023/10/29 01:49:50;;;;;;;3.00;0.57;;;13.90;99.90;;;;;;5021628;28;20033;-86
2023/10/29 01:52:17;;;;;;;1.90;0.43;;;13.90;99.90;;;;;;5021440;28;20033;-87
2023/10/29 01:54:44;;;;;;;1.75;0.40;;;13.90;99.90;;;;;;5022430;28;20109;-87
2023/10/29 01:57:10;;;;;;;2.35;0.40;;;13.90;99.90;;;;;;5022110;28;20032;-87
2023/10/29 01:59:36;;;;;;;1.48;0.40;;;13.90;99.90;;;;;;5024837;28;20022;-87
2023/10/29 02:02:01;;;;;;;5.95;0.40;;;13.90;99.90;;;;;;5027142;28;20022;-84
2023/10/29 02:04:30;;;;;;;4.68;0.73;;;14.00;99.90;;;;;;5025222;28;20018;-86
2023/10/29 02:06:56;;;;;;;1.85;0.40;;;14.00;99.90;;;;;;5022424;28;20045;-86
2023/10/29 02:09:22;;;;;;;3.17;0.50;;;14.00;99.90;;;;;;5021015;28;20018;-86
2023/10/29 02:11:48;;;;;;;2.67;0.50;;;13.90;99.90;;;;;;5021448;28;20022;-86
2023/10/29 02:14:14;;;;;;;6.32;0.70;;;14.00;99.90;;;;;;5020427;28;20025;-86
2023/10/29 02:16:40;;;;;;;4.18;0.68;;;14.00;99.90;;;;;;5021360;28;20026;-85
2023/10/29 02:19:07;;;;;;;3.50;0.60;;;14.00;99.90;;;;;;5020274;28;20030;-86
2023/10/29 02:21:34;;;;;;;2.25;0.40;;;14.00;99.90;;;;;;5020634;28;20018;-86
2023/10/29 02:24:01;;;;;;;1.90;0.40;;;14.10;99.90;;;;;;5020483;28;20057;-86
2023/10/29 02:26:27;;;;;;;1.90;0.40;;;14.10;99.90;;;;;;5020435;28;20064;-86
2023/10/29 02:28:53;;;;;;;1.77;0.40;;;14.20;99.90;;;;;;5020732;28;20121;-85
2023/10/29 02:31:20;;;;;;;1.95;0.40;;;14.20;99.90;;;;;;5020534;28;20076;-86
2023/10/29 02:33:46;;;;;;;2.83;0.50;;;14.20;99.90;;;;;;5020555;28;20224;-86
2023/10/29 02:36:13;;;;;;;2.92;0.40;;;14.20;99.90;;;;;;5019556;28;20028;-86
2023/10/29 02:38:40;;;;;;;2.70;0.40;;;14.20;99.90;;;;;;5020965;28;20026;-86
2023/10/29 02:41:06;;;;;;;2.63;0.40;;;14.30;99.90;;;;;;5020443;28;20030;-87
2023/10/29 02:43:38;;;;;;;2.25;0.30;;;14.30;99.90;;;;;;5020637;28;20050;-86
2023/10/29 02:46:04;;;;;;;1.63;0.40;;;14.30;99.90;;;;;;5023561;28;20026;-86
2023/10/29 02:48:30;;;;;;;2.08;0.38;;;14.30;99.90;;;;;;5023881;28;20041;-86
2023/10/29 02:50:55;;;;;;;2.30;0.45;;;14.40;99.90;;;;;;5020645;28;20018;-87
2023/10/29 02:53:22;;;;;;;4.57;0.65;;;14.40;99.90;;;;;;5020248;28;20200;-87
2023/10/29 02:55:48;;;;;;;3.38;0.52;;;14.40;99.90;;;;;;5020590;28;20034;-85
2023/10/29 02:58:14;;;;;;;3.67;0.60;;;14.40;99.90;;;;;;5020060;28;20026;-86
2023/10/29 03:00:39;;;;;;;2.05;0.50;;;14.40;99.90;;;;;;5020591;28;20026;-86
2023/10/29 03:03:06;;;;;;;2.38;0.40;;;14.40;99.90;;;;;;5020340;28;20030;-86
2023/10/29 03:05:32;;;;;;;2.33;0.30;;;14.40;99.90;;;;;;5020001;28;20026;-87
2023/10/29 03:07:59;;;;;;;4.35;0.50;;;14.40;99.90;;;;;;5021993;28;20042;-86
2023/10/29 03:10:25;;;;;;;2.55;0.40;;;14.30;99.90;;;;;;5023936;28;20542;-86
2023/10/29 03:12:51;;;;;;;4.95;0.57;;;14.30;99.90;;;;;;5036868;28;20105;-87
2023/10/29 03:15:17;;;;;;;2.92;0.52;;;14.30;99.90;;;;;;5023559;28;20033;-86
2023/10/29 03:17:43;;;;;;;1.15;0.30;;;14.30;99.90;;;;;;5023770;28;20026;-85
2023/10/29 03:20:11;;;;;;;1.65;0.40;;;14.30;99.90;;;;;;5023253;28;20075;-87
2023/10/29 03:22:37;;;;;;;2.78;0.50;;;14.30;99.90;;;;;;5024057;28;20985;-87
2023/10/29 03:25:03;;;;;;;5.13;0.40;;;14.30;99.90;;;;;;5023827;28;20022;-87
2023/10/29 03:27:28;;;;;;;1.52;0.40;;;14.30;99.90;;;;;;5023171;28;20030;-87
2023/10/29 03:29:54;;;;;;;1.77;0.40;;;14.30;99.90;;;;;;5023960;28;20040;-87
2023/10/29 03:32:20;;;;;;;1.48;0.35;;;14.30;99.90;;;;;;5024280;28;20085;-87
2023/10/29 03:34:46;;;;;;;5.03;0.47;;;14.40;99.90;;;;;;5023470;28;20087;-86
2023/10/29 03:37:12;;;;;;;3.28;0.47;;;14.40;99.90;;;;;;5023565;28;20502;-87
2023/10/29 03:39:38;;;;;;;1.70;0.30;;;14.30;99.90;;;;;;5023653;28;20385;-86
2023/10/29 03:42:04;;;;;;;1.27;0.30;;;14.30;99.90;;;;;;5023377;28;20036;-86
2023/10/29 03:44:31;;;;;;;1.98;0.30;;;14.30;99.90;;;;;;5007587;28;20488;-86
2023/10/29 03:46:56;;;;;;;2.00;0.40;;;14.30;99.90;;;;;;5023706;28;20045;-86
2023/10/29 03:49:22;;;;;;;1.83;0.30;;;14.30;99.90;;;;;;5024609;28;20022;-85
2023/10/29 03:51:48;;;;;;;1.33;0.30;;;14.30;99.90;;;;;;5028255;28;20026;-85
2023/10/29 03:54:14;;;;;;;4.18;0.40;;;14.30;99.90;;;;;;5024862;28;20049;-86
2023/10/29 03:56:40;;;;;;;2.05;0.47;;;14.30;99.90;;;;;;5023161;28;20013;-86
2023/10/29 03:59:06;;;;;;;1.40;0.32;;;14.40;99.90;;;;;;5023504;28;20048;-86
2023/10/29 04:01:32;;;;;;;4.40;0.38;;;14.30;99.90;;;;;;5022932;28;20489;-86
2023/10/29 04:03:58;;;;;;;3.63;0.47;;;14.40;99.90;;;;;;5022773;28;20037;-86
2023/10/29 04:06:24;;;;;;;1.02;0.30;;;14.40;99.90;;;;;;5022520;28;20498;-86
2023/10/29 04:08:50;;;;;;;4.78;0.30;;;14.40;99.90;;;;;;5023274;28;20520;-86
2023/10/29 04:11:16;;;;;;;1.80;0.30;;;14.30;99.90;;;;;;5022745;28;20017;-86
2023/10/29 04:13:44;;;;;;;1.80;0.30;;;14.30;99.90;;;;;;5022693;28;20052;-85
2023/10/29 04:16:10;;;;;;;1.45;0.30;;;14.30;99.90;;;;;;5022858;28;20022;-86
2023/10/29 04:18:35;;;;;;;1.15;0.20;;;14.30;99.90;;;;;;5021754;28;20112;-87
2023/10/29 04:21:06;;;;;;;1.60;0.38;;;14.20;99.90;;;;;;5022628;28;20068;-87
2023/10/29 04:23:32;;;;;;;0.88;0.20;;;14.20;99.90;;;;;;5022211;28;20058;-87
2023/10/29 04:25:58;;;;;;;1.48;0.30;;;14.20;99.90;;;;;;5022818;28;20030;-87
2023/10/29 04:28:24;;;;;;;3.15;0.40;;;14.20;99.90;;;;;;5022350;28;20060;-88
2023/10/29 04:30:50;;;;;;;3.97;0.30;;;14.20;99.90;;;;;;5022323;28;20074;-87
2023/10/29 04:33:16;;;;;;;3.13;0.40;;;14.20;99.90;;;;;;5022137;28;20038;-87
2023/10/29 04:35:43;;;;;;;4.43;0.30;;;14.20;99.90;;;;;;5022386;28;20047;-87
2023/10/29 04:38:09;;;;;;;2.42;0.40;;;14.20;99.90;;;;;;5022589;28;20061;-87
2023/10/29 04:40:35;;;;;;;1.50;0.20;;;14.20;99.90;;;;;;5021931;28;20030;-87
2023/10/29 04:43:01;;;;;;;3.40;0.40;;;14.20;99.90;;;;;;5022164;28;20042;-87
2023/10/29 04:45:26;;;;;;;0.75;0.20;;;14.20;99.90;;;;;;5022009;28;20160;-87
2023/10/29 04:47:52;;;;;;;2.45;0.35;;;14.20;99.90;;;;;;5022305;28;20065;-86
2023/10/29 04:50:18;;;;;;;1.85;0.50;;;14.20;99.90;;;;;;5022063;28;20036;-85
2023/10/29 04:52:44;;;;;;;1.65;0.30;;;14.20;99.90;;;;;;5022062;28;20419;-86
2023/10/29 04:55:10;;;;;;;4.82;0.30;;;14.20;99.90;;;;;;5021843;28;20033;-86
2023/10/29 04:57:35;;;;;;;1.63;0.43;;;14.30;99.90;;;;;;5021734;28;20095;-86
2023/10/29 05:00:04;;;;;;;1.17;0.30;;;14.30;99.90;;;;;;5021822;28;20018;-86
2023/10/29 05:02:30;;;;;;;2.33;0.40;;;14.20;99.90;;;;;;5021764;28;20087;-86
2023/10/29 05:04:55;;;;;;;1.33;0.30;;;14.10;99.90;;;;;;5022108;28;20017;-85
2023/10/29 05:07:21;;;;;;;3.20;0.20;;;14.00;99.90;;;;;;5021637;28;20033;-86
2023/10/29 05:09:47;;;;;;;2.05;0.52;;;13.90;99.90;;;;;;5021600;28;20029;-87
2023/10/29 05:12:13;;;;;;;1.38;0.32;;;13.90;99.90;;;;;;5021370;28;20018;-85
2023/10/29 05:14:39;;;;;;;3.15;0.43;;;13.80;99.90;;;;;;5020761;28;20029;-85
2023/10/29 05:17:05;;;;;;;2.72;0.30;;;13.80;99.90;;;;;;5005214;28;20037;-86
2023/10/29 05:19:31;;;;;;;2.45;0.40;;;13.80;99.90;;;;;;5021174;28;20033;-85
2023/10/29 05:21:57;;;;;;;1.20;0.20;;;13.70;99.90;;;;;;5021277;28;20022;-86
2023/10/29 05:24:23;;;;;;;4.65;0.35;;;13.70;99.90;;;;;;5021209;28;20077;-87
2023/10/29 05:26:48;;;;;;;2.67;0.47;;;13.60;99.90;;;;;;5021656;28;20038;-86
2023/10/29 05:29:14;;;;;;;1.95;0.35;;;13.60;99.90;;;;;;5021043;28;20032;-85
2023/10/29 05:31:40;;;;;;;4.22;0.50;;;13.60;99.90;;;;;;5020392;28;20030;-86
2023/10/29 05:34:06;;;;;;;2.10;0.30;;;13.60;99.90;;;;;;5021497;28;20028;-86
2023/10/29 05:36:32;;;;;;;2.53;0.43;;;13.60;99.90;;;;;;5020702;28;20018;-86
2023/10/29 05:38:58;;;;;;;2.92;0.30;;;13.60;99.90;;;;;;5022157;28;20391;-87
2023/10/29 05:41:24;;;;;;;3.10;0.40;;;13.60;99.90;;;;;;5021460;28;20397;-86
2023/10/29 05:43:49;;;;;;;1.38;0.20;;;13.60;99.90;;;;;;5025782;28;20049;-84
2023/10/29 05:46:16;;;;;;;4.30;0.40;;;13.60;99.90;;;;;;5025649;28;20050;-84
2023/10/29 05:48:42;;;;;;;4.95;0.50;;;13.60;99.90;;;;;;5022836;28;20026;-88
2023/10/29 05:51:12;;;;;;;3.53;0.32;;;13.60;99.90;;;;;;5022130;28;20036;-88
2023/10/29 05:53:39;;;;;;;2.80;0.50;;;13.60;99.90;;;;;;5021281;28;20046;-87
2023/10/29 05:56:06;;;;;;;2.05;0.30;;;13.60;99.90;;;;;;5021543;28;20018;-88
2023/10/29 05:58:32;;;;;;;2.33;0.30;;;13.60;99.90;;;;;;5020585;28;20045;-87
2023/10/29 06:00:57;;;;;;;2.63;0.40;;;13.60;99.90;;;;;;5021726;28;20018;-87
2023/10/29 06:03:24;;;;;;;3.60;0.30;;;13.60;99.90;;;;;;5021275;28;20025;-88
2023/10/29 06:05:51;;;;;;;1.27;0.20;;;13.60;99.90;;;;;;5021335;28;20022;-85
2023/10/29 06:08:17;;;;;;;2.85;0.30;;;13.60;99.90;;;;;;5020516;28;20473;-87
2023/10/29 06:10:43;;;;;;;1.10;0.20;;;13.60;99.90;;;;;;5022093;28;20466;-87
2023/10/29 06:13:09;;;;;;;1.70;0.30;;;13.60;99.90;;;;;;5020144;28;20026;-87
2023/10/29 06:15:36;;;;;;;1.58;0.30;;;13.60;99.90;;;;;;5020470;28;20022;-87
2023/10/29 06:18:04;;;;;;;1.92;0.22;;;13.60;99.60;;;;;;5020874;28;20033;-87
2023/10/29 06:20:30;;;;;;;1.85;0.30;;;13.60;99.30;;;;;;5020852;28;20081;-87
2023/10/29 06:22:56;;;;;;;2.13;0.25;;;13.60;99.30;;;;;;5021372;28;20034;-86
2023/10/29 06:25:21;;;;;;;1.95;0.30;;;13.60;99.20;;;;;;5020765;28;20025;-87
2023/10/29 06:27:47;;;;;;;2.63;0.22;;;13.60;99.20;;;;;;5019461;28;20466;-88
2023/10/29 06:30:13;;;;;;;4.60;0.47;;;13.60;99.00;;;;;;5020702;28;20029;-86
2023/10/29 06:32:39;;;;;;;4.10;0.43;;;13.60;99.00;;;;;;5020112;28;20072;-86
2023/10/29 06:35:05;;;;;;;3.35;0.28;;;13.60;98.90;;;;;;5020975;28;20084;-86
2023/10/29 06:37:31;;;;;;;4.57;0.47;;;13.60;98.80;;;;;;5020048;28;20025;-83
2023/10/29 06:39:57;;;;;;;3.58;0.20;;;13.60;98.70;;;;;;5020389;28;20045;-84
2023/10/29 06:42:23;;;;;;;2.90;0.35;;;13.50;98.60;;;;;;5021408;28;20099;-84
2023/10/29 06:44:48;;;;;;;2.00;0.30;;;13.50;98.60;;;;;;5027005;28;20126;-84
2023/10/29 06:47:14;;;;;;;5.45;0.30;;;13.50;98.70;;;;;;5040774;28;20037;-84
2023/10/29 06:49:41;;;;;;;6.45;0.60;;;13.50;98.70;;;;;;5027397;28;20033;-85
2023/10/29 06:52:07;;;;;;;4.63;0.50;;;13.50;98.70;;;;;;5044504;28;20033;-84
2023/10/29 06:54:34;;;;;;;5.50;0.43;;;13.50;98.70;;;;;;5043947;28;20030;-85
2023/10/29 06:57:00;;;;;;;2.90;0.30;;;13.40;98.70;;;;;;5043693;28;20036;-85
2023/10/29 06:59:26;;;;;;;2.83;0.30;;;13.40;98.70;;;;;;5043596;28;20030;-85
2023/10/29 07:01:52;;;;;;;1.90;0.40;;;13.40;98.80;;;;;;5043656;28;20068;-85
2023/10/29 07:04:18;;;;;;;4.93;0.35;;;13.40;98.70;;;;;;5043832;28;20486;-85
2023/10/29 07:06:46;;;;;;;3.80;1.20;;;13.40;98.80;;;;;;5043819;28;20037;-85
2023/10/29 07:09:15;;;;;;;10.25;0.47;;;13.40;98.90;;;;;;5043857;28;20120;-85
2023/10/29 07:11:41;;;;;;;2.38;0.40;;;13.30;98.90;;;;;;5042845;28;20524;-85
2023/10/29 07:14:07;;;;;;;3.10;0.40;;;13.30;99.10;;;;;;5043788;28;20020;-85
2023/10/29 07:16:33;;;;;;;2.60;0.57;;;13.30;99.20;;;;;;5043483;28;20057;-85
2023/10/29 07:18:58;;;;;;;2.97;0.35;;;13.30;99.30;;;;;;5027097;28;20026;-85
2023/10/29 07:21:24;;;;;;;3.47;0.40;;;13.40;99.40;;;;;;5043448;28;20505;-85
2023/10/29 07:23:50;;;;;;;4.40;0.50;;;13.40;99.50;;;;;;5043216;28;20037;-85
2023/10/29 07:26:16;;;;;;;3.42;0.55;;;13.50;99.40;;;;;;5042884;28;20049;-85
2023/10/29 07:28:42;;;;;;;4.65;0.47;;;13.50;99.40;;;;;;5026672;28;20045;-85
2023/10/29 07:31:07;;;;;;;6.15;0.57;;;13.60;99.40;;;;;;5026942;28;20030;-85
2023/10/29 07:33:33;;;;;;;4.00;0.60;;;13.70;99.10;;;;;;5042730;28;20024;-85
2023/10/29 07:36:03;;;;;;;6.43;0.68;;;13.70;99.00;;;;;;5044022;28;20018;-85
2023/10/29 07:38:28;;;;;;;4.53;0.73;;;13.70;98.90;;;;;;5044172;28;20025;-85
2023/10/29 07:40:54;;;;;;;5.85;0.50;;;13.70;98.80;;;;;;5042809;28;20025;-85
2023/10/29 07:43:20;;;;;;;3.53;0.35;;;13.70;98.70;;;;;;5043010;28;20132;-84
2023/10/29 07:45:47;;;;;;;5.53;1.05;;;13.70;98.60;;;;;;5042659;28;20017;-84
2023/10/29 07:48:17;;;;;;;5.25;0.80;;;13.70;98.30;;;;;;5043373;28;20041;-84
2023/10/29 07:50:49;;;;;;;5.05;0.52;;;13.70;98.20;;;;;;5037890;28;20083;-84
2023/10/29 07:53:15;;;;;;;3.50;0.47;;;13.70;98.10;;;;;;5035431;28;20040;-84
2023/10/29 07:55:41;;;;;;;4.75;0.52;;;13.70;97.90;;;;;;5041946;28;20013;-84
2023/10/29 07:58:06;;;;;;;5.93;0.57;;;13.70;97.80;;;;;;5036326;28;20026;-84
2023/10/29 08:00:34;;;;;;;7.93;0.90;;;13.80;97.80;;;;;;5041852;28;20057;-84
2023/10/29 08:03:01;;;;;;;20.60;1.40;;;13.70;97.60;;;;;;5042148;28;20040;-84
2023/10/29 08:05:27;;;;;;;9.02;0.77;;;13.80;97.30;;;;;;5042709;28;20025;-84
2023/10/29 08:07:52;;;;;;;5.47;0.70;;;13.80;96.90;;;;;;5041511;28;20040;-85
2023/10/29 08:10:18;;;;;;;7.40;0.90;;;13.80;96.80;;;;;;5042156;28;20029;-84
2023/10/29 08:12:44;;;;;;;7.22;1.10;;;13.80;96.80;;;;;;5042072;28;20060;-82
2023/10/29 08:15:10;;;;;;;10.55;1.60;;;13.90;96.70;;;;;;5041901;28;20381;-86
2023/10/29 08:17:36;;;;;;;4.82;0.90;;;13.90;96.80;;;;;;5042538;28;20025;-84
2023/10/29 08:20:02;;;;;;;7.10;0.85;;;13.90;96.80;;;;;;5041582;28;20024;-84
2023/10/29 08:22:28;;;;;;;4.60;0.45;;;14.00;96.90;;;;;;5041342;28;20038;-84
2023/10/29 08:24:56;;;;;;;6.00;0.60;;;14.00;96.80;;;;;;5041264;28;20135;-83
2023/10/29 08:27:21;;;;;;;11.57;0.90;;;14.00;96.60;;;;;;5042627;28;20029;-83
2023/10/29 08:29:49;;;;;;;10.07;1.20;;;14.10;96.70;;;;;;5042988;28;20017;-83
2023/10/29 08:32:15;;;;;;;6.38;0.73;;;14.10;96.60;;;;;;5040780;28;20017;-83
2023/10/29 08:34:41;;;;;;;9.35;0.80;;;14.20;96.70;;;;;;5038589;28;20026;-82
2023/10/29 08:37:07;;;;;;;5.53;0.80;;;14.20;96.70;;;;;;5022842;28;20650;-82
2023/10/29 08:39:33;;;;;;;6.82;0.90;;;14.30;96.60;;;;;;5038865;28;20071;-82
2023/10/29 08:42:02;;;;;;;7.80;1.05;;;14.40;96.80;;;;;;5040183;28;20017;-82
2023/10/29 08:44:28;;;;;;;5.32;0.75;;;14.50;96.60;;;;;;5038562;28;20038;-82
2023/10/29 08:46:54;;;;;;;5.45;0.75;;;14.50;96.20;;;;;;5024120;28;20036;-83
2023/10/29 08:49:19;;;;;;;9.38;0.70;;;14.60;96.10;;;;;;5040802;28;20021;-83
2023/10/29 08:51:45;;;;;;;7.75;1.10;;;14.60;95.90;;;;;;5040469;28;20036;-82
2023/10/29 08:54:11;;;;;;;6.95;0.90;;;14.70;95.70;;;;;;5041533;28;20030;-82
2023/10/29 08:56:37;;;;;;;5.28;0.50;;;14.70;95.30;;;;;;5037381;28;20021;-83
2023/10/29 08:59:06;;;;;;;6.22;0.75;;;14.80;94.90;;;;;;5040020;28;20021;-83
2023/10/29 09:01:33;;;;;;;24.20;1.38;;;14.90;94.50;;;;;;5041256;28;20101;-83
2023/10/29 09:03:59;;;;;;;8.48;1.17;;;14.90;94.30;;;;;;5039434;28;20040;-83
2023/10/29 09:06:26;;;;;;;6.45;0.98;;;14.90;94.20;;;;;;5040640;28;20076;-83
2023/10/29 09:08:51;;;;;;;8.73;1.45;;;14.90;93.80;;;;;;5041159;28;20028;-83
2023/10/29 09:11:17;;;;;;;5.25;0.85;;;15.00;93.60;;;;;;5041148;28;20101;-83
2023/10/29 09:13:46;;;;;;;4.00;0.60;;;15.10;93.40;;;;;;5041615;28;20121;-83
2023/10/29 09:16:12;;;;;;;4.90;0.80;;;15.20;92.90;;;;;;5040823;28;20025;-82
2023/10/29 09:18:38;;;;;;;5.88;0.60;;;15.20;92.70;;;;;;5041050;28;20096;-82
2023/10/29 09:21:04;;;;;;;4.82;0.73;;;15.30;92.30;;;;;;5040191;28;20028;-83
2023/10/29 09:23:32;;;;;;;6.93;1.08;;;15.30;91.60;;;;;;5025731;28;20026;-82
2023/10/29 09:25:59;;;;;;;6.57;0.70;;;15.30;90.80;;;;;;5020615;28;20060;-83
2023/10/29 09:28:26;;;;;;;8.60;0.88;;;15.30;90.80;;;;;;5028403;28;20040;-83
2023/10/29 09:30:52;;;;;;;7.70;0.95;;;15.40;90.70;;;;;;5040306;28;20049;-83
2023/10/29 09:33:17;;;;;;;5.85;0.80;;;15.40;90.70;;;;;;5037467;28;20155;-82
2023/10/29 09:35:43;;;;;;;4.05;0.85;;;15.50;90.70;;;;;;5035282;28;20369;-82
2023/10/29 09:38:09;;;;;;;5.80;0.95;;;15.60;90.60;;;;;;5034902;28;20030;-83
2023/10/29 09:40:36;;;;;;;11.32;1.08;;;15.80;89.50;;;;;;5045220;28;20037;-83
2023/10/29 09:43:04;;;;;;;7.30;0.70;;;16.10;89.30;;;;;;5022754;28;20046;-83
2023/10/29 09:45:35;;;;;;;4.80;0.85;;;16.40;89.10;;;;;;5030967;28;20087;-83
2023/10/29 09:48:02;;;;;;;7.63;1.30;;;16.80;88.60;;;;;;5026331;28;20033;-83
2023/10/29 09:50:28;;;;;;;6.07;1.08;;;17.20;86.70;;;;;;5039871;28;20030;-84
2023/10/29 09:52:54;;;;;;;4.38;0.60;;;17.40;86.00;;;;;;5024388;28;20092;-83
2023/10/29 09:55:21;;;;;;;5.25;0.70;;;17.50;84.30;;;;;;5041349;28;20079;-83
2023/10/29 09:57:48;;;;;;;5.68;0.68;;;17.40;81.90;;;;;;5040902;28;20030;-83
2023/10/29 10:00:18;;;;;;;4.32;0.93;;;17.40;78.60;;;;;;5040173;28;20028;-83
2023/10/29 10:02:59;;;;;;;5.65;0.80;;;17.20;79.40;;;;;;5042044;28;20093;-83
2023/10/29 10:05:27;;;;;;;5.38;0.57;;;17.50;78.40;;;;;;5059276;28;20021;-83
2023/10/29 10:07:57;;;;;;;5.45;0.90;;;17.80;79.80;;;;;;5059644;28;20104;-83
2023/10/29 10:10:43;;;;;;;4.38;0.70;;;18.10;77.30;;;;;;5060337;28;20028;-83
2023/10/29 10:13:12;;;;;;;6.10;0.70;;;18.30;76.00;;;;;;5059196;28;20093;-83
2023/10/29 10:15:38;;;;;;;3.85;0.60;;;18.50;76.40;;;;;;5059789;28;20017;-83
2023/10/29 10:18:05;;;;;;;5.55;0.57;;;18.60;75.70;;;;;;5059578;28;20119;-83
2023/10/29 10:20:32;;;;;;;5.00;0.60;;;18.80;75.10;;;;;;5058659;28;20022;-83
2023/10/29 10:23:08;;;;;;;10.65;0.93;;;18.80;74.60;;;;;;5060314;28;20027;-83
2023/10/29 10:25:34;;;;;;;4.60;0.60;;;18.70;74.90;;;;;;5040633;28;20028;-83
2023/10/29 10:28:02;;;;;;;7.65;0.90;;;18.60;72.60;;;;;;5036983;28;20054;-83
2023/10/29 10:30:37;;;;;;;7.88;1.15;;;18.40;71.50;;;;;;5037767;28;20504;-83
2023/10/29 10:33:12;;;;;;;7.90;0.70;;;18.10;71.10;;;;;;5038987;28;20056;-83
2023/10/29 10:35:43;;;;;;;9.10;0.80;;;17.90;71.40;;;;;;5037515;28;20061;-83
2023/10/29 10:38:10;;;;;;;3.92;0.50;;;17.60;71.90;;;;;;5019369;28;20026;-84
2023/10/29 10:40:37;;;;;;;6.18;0.80;;;17.40;72.90;;;;;;5039709;28;20315;-84
2023/10/29 10:43:04;;;;;;;5.60;1.02;;;17.20;72.40;;;;;;5040642;28;20065;-83
2023/10/29 10:45:31;;;;;;;8.90;0.90;;;17.00;73.30;;;;;;5042525;28;20033;-84
2023/10/29 10:48:04;;;;;;;6.78;0.90;;;17.00;74.10;;;;;;5041850;28;20029;-83
2023/10/29 10:50:30;;;;;;;5.03;0.80;;;17.10;75.20;;;;;;5039823;28;20414;-84
2023/10/29 10:52:57;;;;;;;6.35;1.17;;;17.60;75.30;;;;;;5040110;28;20037;-82
2023/10/29 10:55:24;;;;;;;6.72;0.95;;;17.80;74.20;;;;;;5036012;28;20032;-83
2023/10/29 10:57:51;;;;;;;5.78;0.75;;;18.00;73.70;;;;;;5041659;28;20032;-83
2023/10/29 11:00:18;;;;;;;3.97;0.80;;;18.20;73.30;;;;;;5040814;28;20051;-83
2023/10/29 11:02:46;;;;;;;6.63;0.70;;;18.30;73.30;;;;;;5040362;28;20052;-83
2023/10/29 11:05:13;;;;;;;5.60;1.13;;;18.20;72.80;;;;;;5037862;28;20022;-83
2023/10/29 11:07:43;;;;;;;5.57;1.15;;;18.30;73.20;;;;;;5038891;28;20379;-82
2023/10/29 11:10:13;;;;;;;5.68;0.75;;;18.30;71.90;;;;;;5039841;28;20022;-83
2023/10/29 11:12:40;;;;;;;5.57;0.90;;;18.20;70.70;;;;;;5038720;28;20017;-83
2023/10/29 11:15:45;;;;;;;5.72;0.80;;;18.00;71.20;;;;;;5039297;28;20028;-83
2023/10/29 11:18:11;;;;;;;3.67;0.80;;;17.80;71.50;;;;;;5030763;28;20034;-83
2023/10/29 11:20:37;;;;;;;8.75;1.20;;;17.60;71.90;;;;;;5039676;28;20026;-80
2023/10/29 11:23:12;;;;;;;5.80;1.05;;;17.40;71.70;;;;;;5040338;28;20120;-82
2023/10/29 11:25:40;;;;;;;5.10;0.60;;;17.20;72.00;;;;;;5039417;28;20029;-84
2023/10/29 11:28:31;;;;;;;9.07;0.90;;;17.00;72.60;;;;;;5040593;28;20141;-83
2023/10/29 11:31:13;;;;;;;6.10;0.88;;;16.90;73.00;;;;;;5034407;28;20118;-83
2023/10/29 11:33:41;;;;;;;6.78;0.90;;;16.70;73.60;;;;;;5042311;28;20028;-83
2023/10/29 11:36:31;;;;;;;6.32;0.82;;;16.70;73.90;;;;;;5043789;28;20041;-83
2023/10/29 11:39:15;;;;;;;7.93;1.45;;;16.60;74.30;;;;;;5043573;28;20032;-83
2023/10/29 11:41:42;;;;;;;8.90;0.82;;;16.40;74.60;;;;;;5040796;28;20060;-84
2023/10/29 11:44:27;;;;;;;5.43;0.65;;;16.30;75.10;;;;;;5023883;28;20056;-83
2023/10/29 11:47:02;;;;;;;6.07;0.80;;;16.30;75.80;;;;;;5038199;28;20073;-83
2023/10/29 11:49:30;;;;;;;5.75;0.70;;;16.20;76.00;;;;;;5040973;28;20034;-83
2023/10/29 11:52:03;;;;;;;6.13;1.05;;;16.20;76.40;;;;;;5039681;28;20057;-83
2023/10/29 11:54:32;;;;;;;5.78;0.82;;;16.20;76.60;;;;;;5036761;28;20041;-83
2023/10/29 11:56:59;;;;;;;6.97;1.02;;;16.20;77.00;;;;;;5029430;28;20076;-83
2023/10/29 11:59:25;;;;;;;4.97;0.93;;;16.20;77.00;;;;;;5024745;28;20029;-83
2023/10/29 12:01:52;;;;;;;3.97;0.60;;;16.20;77.40;;;;;;5031863;28;20029;-83
2023/10/29 12:04:18;;;;;;;10.25;1.00;;;16.20;77.70;;;;;;5022321;28;20026;-83
2023/10/29 12:06:45;;;;;;;8.45;1.02;;;16.30;78.00;;;;;;5025142;28;20025;-84
2023/10/29 12:09:22;;;;;;;5.45;0.75;;;16.30;78.10;;;;;;5031207;28;20018;-83
2023/10/29 12:11:54;;;;;;;5.65;0.75;;;16.40;78.50;;;;;;5022864;28;20280;-84
2023/10/29 12:14:49;;;;;;;4.95;0.63;;;16.90;79.70;;;;;;5033392;28;20045;-84
2023/10/29 12:17:15;;;;;;;5.97;0.80;;;18.00;81.30;;;;;;5022175;28;20054;-83
2023/10/29 12:19:43;;;;;;;6.85;0.68;;;19.00;80.60;;;;;;5022798;28;20037;-84
2023/10/29 12:22:19;;;;;;;7.95;1.23;;;20.00;76.20;;;;;;5021833;28;20056;-83
2023/10/29 12:24:53;;;;;;;6.80;1.05;;;20.60;72.20;;;;;;5022120;28;20502;-83
2023/10/29 12:27:22;;;;;;;5.80;1.13;;;20.60;70.50;;;;;;5022539;28;20049;-83
2023/10/29 12:30:02;;;;;;;9.00;1.50;;;20.50;69.10;;;;;;5022419;28;20028;-83
2023/10/29 12:32:29;;;;;;;7.18;1.20;;;20.30;67.30;;;;;;5022832;28;20057;-84
2023/10/29 12:34:58;;;;;;;7.38;1.02;;;19.90;66.80;;;;;;5021604;28;20025;-83
2023/10/29 12:37:29;;;;;;;8.45;0.93;;;19.70;67.80;;;;;;5021861;28;20088;-83
2023/10/29 12:39:59;;;;;;;4.85;0.80;;;19.40;67.60;;;;;;5021580;28;20231;-83
2023/10/29 12:42:53;;;;;;;6.07;0.90;;;19.30;68.00;;;;;;5021168;28;20077;-83
2023/10/29 12:45:26;;;;;;;;;;;19.10;68.50;;;;;;5022267;28;20038;-84
2023/10/29 12:48:11;;;;;;;5.70;1.02;;;19.30;69.10;;;;;;5020877;28;19920;-83